Time;durP1;ratioP1;P1;durP2;ratioP2;P2;SDS_P1;SDS_P2;PMS_P1;PMS_P2;Temp;Humidity;BMP_temperature;BMP_pressure;BME280_temperature;BME280_humidity;BME280_pressure;Samples;Min_cycle;Max_cycle;Signal;HPM_P1;HPM_P2
2023/04/16 00:00:40;;;;;;;3.05;2.75;;;;;;;;;;4992794;28;20042;-79
2023/04/16 00:03:06;;;;;;;3.55;2.75;;;;;;;;;;4994560;28;20105;-80
2023/04/16 00:05:32;;;;;;;3.33;2.85;;;;;;;;;;5021766;28;20273;-81
2023/04/16 00:07:58;;;;;;;4.35;3.38;;;;;;;;;;5011282;28;20057;-78
2023/04/16 00:10:24;;;;;;;5.75;2.90;;;;;;;;;;5008428;28;20063;-79
2023/04/16 00:12:50;;;;;;;3.63;2.38;;;;;;;;;;5012024;28;20091;-80
2023/04/16 00:15:16;;;;;;;3.50;2.63;;;;;;;;;;5022500;28;20025;-78
2023/04/16 00:17:42;;;;;;;2.47;2.28;;;;;;;;;;5031130;28;20395;-77
2023/04/16 00:20:08;;;;;;;2.35;2.15;;;;;;;;;;5017111;28;20034;-78
2023/04/16 00:22:34;;;;;;;2.63;2.22;;;;;;;;;;5023365;28;20026;-78
2023/04/16 00:25:00;;;;;;;2.67;2.00;;;;;;;;;;5027139;28;20421;-76
2023/04/16 00:27:26;;;;;;;4.65;3.50;;;;;;;;;;5026970;28;20065;-81
2023/04/16 00:29:52;;;;;;;2.65;2.20;;;;;;;;;;5023537;28;20014;-82
2023/04/16 00:32:18;;;;;;;3.28;2.83;;;;;;;;;;5019888;28;20054;-80
2023/04/16 00:34:44;;;;;;;4.88;2.67;;;;;;;;;;5012597;28;20462;-76
2023/04/16 00:37:10;;;;;;;4.63;2.83;;;;;;;;;;5012509;28;20551;-77
2023/04/16 00:39:36;;;;;;;5.68;3.00;;;;;;;;;;5015587;28;20030;-75
2023/04/16 00:42:02;;;;;;;2.70;2.40;;;;;;;;;;5013833;28;20036;-79
2023/04/16 00:44:29;;;;;;;3.47;2.50;;;;;;;;;;5011903;28;20014;-76
2023/04/16 00:46:56;;;;;;;2.67;2.42;;;;;;;;;;5010704;28;20053;-79
2023/04/16 00:49:22;;;;;;;3.03;2.60;;;;;;;;;;5017692;28;20052;-78
2023/04/16 00:51:48;;;;;;;3.42;2.55;;;;;;;;;;5018571;28;20033;-81
2023/04/16 00:54:14;;;;;;;3.50;2.80;;;;;;;;;;5018514;28;20543;-76
2023/04/16 00:56:41;;;;;;;5.50;3.60;;;;;;;;;;5024285;28;20045;-75
2023/04/16 00:59:07;;;;;;;6.28;4.03;;;;;;;;;;5021900;28;20050;-78
2023/04/16 01:01:33;;;;;;;6.03;4.00;;;;;;;;;;5008308;28;20336;-77
2023/04/16 01:03:59;;;;;;;4.18;3.30;;;;;;;;;;5009237;28;20018;-77
2023/04/16 01:06:25;;;;;;;6.95;5.05;;;;;;;;;;4999252;28;20128;-77
2023/04/16 01:08:52;;;;;;;5.03;4.47;;;;;;;;;;4990109;28;20030;-79
2023/04/16 01:11:36;;;;;;;8.60;4.53;;;;;;;;;;4991937;28;20439;-81
2023/04/16 01:14:41;;;;;;;6.22;4.57;;;;;;;;;;5013497;28;20097;-80
2023/04/16 01:23:23;;;;;;;6.10;4.72;;;;;;;;;;5014924;28;20040;-76
2023/04/16 01:29:07;;;;;;;7.47;4.57;;;;;;;;;;5006068;28;20064;-79
2023/04/16 01:32:11;;;;;;;7.63;4.63;;;;;;;;;;4993552;28;20026;-77
2023/04/16 01:38:17;;;;;;;5.95;4.47;;;;;;;;;;4995196;28;20104;-76
2023/04/16 01:44:03;;;;;;;9.00;5.47;;;;;;;;;;5012546;28;20108;-76
2023/04/16 01:50:06;;;;;;;7.15;5.28;;;;;;;;;;5012774;28;20033;-79
2023/04/16 01:52:54;;;;;;;5.80;4.20;;;;;;;;;;4995979;28;20034;-80
2023/04/16 01:55:20;;;;;;;4.63;3.97;;;;;;;;;;5014393;28;20025;-78
2023/04/16 01:57:46;;;;;;;6.88;4.95;;;;;;;;;;5014370;28;20103;-77
2023/04/16 02:00:12;;;;;;;8.75;4.05;;;;;;;;;;5012780;28;20060;-78
2023/04/16 02:02:39;;;;;;;6.50;4.78;;;;;;;;;;5013043;28;20068;-80
2023/04/16 02:05:05;;;;;;;7.60;4.80;;;;;;;;;;4998011;28;20056;-81
2023/04/16 02:07:31;;;;;;;8.30;5.10;;;;;;;;;;5014163;28;20359;-80
2023/04/16 02:09:57;;;;;;;7.45;5.57;;;;;;;;;;4996254;28;20022;-79
2023/04/16 02:12:23;;;;;;;5.38;4.03;;;;;;;;;;4995172;28;20092;-79
2023/04/16 02:14:49;;;;;;;10.05;4.93;;;;;;;;;;5001059;28;20022;-78
2023/04/16 02:17:16;;;;;;;6.70;5.18;;;;;;;;;;4998693;28;20044;-80
2023/04/16 02:19:42;;;;;;;8.82;5.82;;;;;;;;;;5015303;28;20037;-77
2023/04/16 02:22:08;;;;;;;8.45;5.18;;;;;;;;;;4989635;28;20026;-80
2023/04/16 02:24:34;;;;;;;9.45;5.95;;;;;;;;;;5010739;28;20119;-77
2023/04/16 02:27:00;;;;;;;6.07;4.47;;;;;;;;;;5008648;28;20070;-79
2023/04/16 02:29:26;;;;;;;7.07;4.72;;;;;;;;;;5009649;28;20061;-79
2023/04/16 02:31:52;;;;;;;6.20;4.47;;;;;;;;;;5009752;28;20030;-79
2023/04/16 02:34:18;;;;;;;5.53;3.85;;;;;;;;;;5009592;28;20045;-78
2023/04/16 02:36:44;;;;;;;7.45;4.35;;;;;;;;;;5007191;28;20507;-77
2023/04/16 02:39:10;;;;;;;5.03;4.15;;;;;;;;;;5009808;28;20018;-80
2023/04/16 02:41:37;;;;;;;8.95;5.70;;;;;;;;;;4989628;28;20033;-78
2023/04/16 02:44:04;;;;;;;8.43;5.07;;;;;;;;;;4991982;28;20694;-77
2023/04/16 02:46:30;;;;;;;6.60;4.13;;;;;;;;;;4990506;28;20117;-77
2023/04/16 02:48:56;;;;;;;9.93;5.63;;;;;;;;;;5008396;28;20097;-78
2023/04/16 02:51:22;;;;;;;10.65;5.03;;;;;;;;;;4991133;28;20511;-78
2023/04/16 02:53:48;;;;;;;9.30;5.20;;;;;;;;;;4993463;28;20031;-78
2023/04/16 02:56:14;;;;;;;8.60;5.05;;;;;;;;;;4994113;28;20520;-78
2023/04/16 02:58:40;;;;;;;7.38;4.47;;;;;;;;;;5012550;28;20097;-78
2023/04/16 03:01:06;;;;;;;8.98;5.28;;;;;;;;;;5011671;28;20121;-78
2023/04/16 03:03:32;;;;;;;7.60;5.63;;;;;;;;;;5013765;28;20105;-78
2023/04/16 03:05:58;;;;;;;7.68;5.43;;;;;;;;;;5015734;28;20445;-78
2023/04/16 03:08:25;;;;;;;8.38;5.50;;;;;;;;;;5014133;28;20501;-77
2023/04/16 03:10:51;;;;;;;11.23;6.30;;;;;;;;;;5014550;28;20505;-78
2023/04/16 03:13:17;;;;;;;9.90;6.80;;;;;;;;;;4996152;28;20052;-79
2023/04/16 03:15:47;;;;;;;8.65;5.60;;;;;;;;;;4996532;28;20026;-79
2023/04/16 03:18:13;;;;;;;9.45;5.78;;;;;;;;;;5014129;28;20419;-78
2023/04/16 03:20:39;;;;;;;8.23;5.88;;;;;;;;;;4996534;28;20037;-79
2023/04/16 03:23:05;;;;;;;7.15;5.28;;;;;;;;;;4996065;28;20117;-79
2023/04/16 03:25:31;;;;;;;8.27;5.78;;;;;;;;;;4996500;28;20045;-78
2023/04/16 03:27:57;;;;;;;9.15;5.40;;;;;;;;;;4998449;28;20486;-81
2023/04/16 03:30:23;;;;;;;7.90;5.57;;;;;;;;;;5000474;28;20022;-80
2023/04/16 03:32:50;;;;;;;10.35;5.72;;;;;;;;;;5000296;28;20026;-79
2023/04/16 03:35:17;;;;;;;8.20;5.80;;;;;;;;;;5000156;28;20026;-79
2023/04/16 03:37:43;;;;;;;9.15;6.60;;;;;;;;;;5018110;28;20030;-79
2023/04/16 03:40:10;;;;;;;8.30;4.70;;;;;;;;;;5016781;28;20266;-80
2023/04/16 03:42:36;;;;;;;8.98;5.00;;;;;;;;;;4999116;28;20029;-79
2023/04/16 03:45:02;;;;;;;10.68;5.00;;;;;;;;;;5000002;28;20079;-79
2023/04/16 03:47:28;;;;;;;7.53;5.25;;;;;;;;;;4999046;28;20097;-80
2023/04/16 03:49:54;;;;;;;10.27;5.90;;;;;;;;;;4997015;28;20054;-79
2023/04/16 03:52:20;;;;;;;8.68;5.50;;;;;;;;;;4995416;28;20068;-80
2023/04/16 03:54:46;;;;;;;6.97;5.35;;;;;;;;;;5012966;28;20525;-79
2023/04/16 03:57:12;;;;;;;7.80;4.38;;;;;;;;;;5012986;28;20033;-79
2023/04/16 03:59:38;;;;;;;5.88;3.70;;;;;;;;;;5012717;28;20097;-79
2023/04/16 04:02:04;;;;;;;4.30;3.10;;;;;;;;;;4995039;28;20425;-80
2023/04/16 04:04:30;;;;;;;7.10;2.88;;;;;;;;;;5012861;28;20018;-80
2023/04/16 04:06:56;;;;;;;2.47;2.25;;;;;;;;;;5015265;28;20038;-81
2023/04/16 04:09:22;;;;;;;3.33;2.20;;;;;;;;;;5014178;28;20029;-80
2023/04/16 04:11:50;;;;;;;4.63;3.10;;;;;;;;;;5013928;28;20038;-80
2023/04/16 04:14:16;;;;;;;8.20;3.05;;;;;;;;;;4996079;28;20513;-79
2023/04/16 04:16:42;;;;;;;2.95;2.67;;;;;;;;;;4996135;28;20042;-80
2023/04/16 04:19:10;;;;;;;3.28;2.85;;;;;;;;;;5013929;28;20030;-79
2023/04/16 04:21:36;;;;;;;3.87;2.93;;;;;;;;;;4994572;28;20030;-79
2023/04/16 04:24:02;;;;;;;4.20;2.42;;;;;;;;;;4994008;28;20279;-79
2023/04/16 04:26:28;;;;;;;3.97;2.75;;;;;;;;;;5012422;28;20052;-79
2023/04/16 04:28:54;;;;;;;3.47;2.50;;;;;;;;;;5012122;28;20022;-79
2023/04/16 04:31:20;;;;;;;3.08;2.78;;;;;;;;;;4996245;28;20413;-80
2023/04/16 04:33:46;;;;;;;3.50;2.67;;;;;;;;;;4998280;28;20033;-80
2023/04/16 04:36:12;;;;;;;2.42;2.22;;;;;;;;;;5016048;28;20040;-80
2023/04/16 04:38:38;;;;;;;7.05;2.47;;;;;;;;;;5015679;28;20026;-81
2023/04/16 04:41:04;;;;;;;2.47;2.28;;;;;;;;;;4997819;28;20037;-80
2023/04/16 04:43:30;;;;;;;2.38;1.98;;;;;;;;;;4998564;28;20379;-80
2023/04/16 04:45:56;;;;;;;4.55;2.25;;;;;;;;;;5016320;28;20479;-80
2023/04/16 04:48:25;;;;;;;2.78;2.30;;;;;;;;;;5016561;28;20026;-79
2023/04/16 04:50:52;;;;;;;2.60;2.10;;;;;;;;;;4998430;28;20485;-80
2023/04/16 04:53:18;;;;;;;1.95;1.85;;;;;;;;;;4998357;28;20261;-79
2023/04/16 04:55:44;;;;;;;3.25;1.83;;;;;;;;;;4997192;28;20053;-79
2023/04/16 04:58:11;;;;;;;2.25;1.83;;;;;;;;;;4997991;28;20040;-80
2023/04/16 05:00:37;;;;;;;2.25;2.00;;;;;;;;;;4995947;28;20121;-79
2023/04/16 05:03:04;;;;;;;4.93;2.33;;;;;;;;;;4997615;28;20168;-80
2023/04/16 05:05:30;;;;;;;2.67;1.80;;;;;;;;;;5015409;28;20076;-79
2023/04/16 05:07:56;;;;;;;2.50;2.30;;;;;;;;;;5014731;28;20028;-79
2023/04/16 05:10:22;;;;;;;2.70;2.05;;;;;;;;;;4996672;28;20022;-80
2023/04/16 05:12:48;;;;;;;1.85;1.67;;;;;;;;;;4996847;28;20025;-80
2023/04/16 05:15:14;;;;;;;2.95;2.10;;;;;;;;;;4996041;28;20033;-80
2023/04/16 05:17:40;;;;;;;2.40;2.20;;;;;;;;;;5015297;28;20068;-80
2023/04/16 05:20:07;;;;;;;2.72;2.28;;;;;;;;;;4997615;28;20045;-79
2023/04/16 05:22:33;;;;;;;2.72;2.17;;;;;;;;;;5014223;28;20033;-79
2023/04/16 05:24:59;;;;;;;3.72;2.20;;;;;;;;;;4994610;28;20430;-80
2023/04/16 05:27:25;;;;;;;2.20;1.95;;;;;;;;;;4995861;28;20356;-79
2023/04/16 05:29:51;;;;;;;2.08;1.88;;;;;;;;;;4995337;28;20470;-79
2023/04/16 05:32:17;;;;;;;2.28;1.70;;;;;;;;;;5012491;28;20053;-80
2023/04/16 05:34:43;;;;;;;3.65;2.42;;;;;;;;;;5012759;28;20111;-80
2023/04/16 05:37:09;;;;;;;3.00;2.28;;;;;;;;;;5011856;28;20494;-79
2023/04/16 05:39:35;;;;;;;3.08;1.98;;;;;;;;;;4993784;28;20112;-79
2023/04/16 05:42:01;;;;;;;2.90;2.00;;;;;;;;;;5013765;28;20061;-79
2023/04/16 05:44:27;;;;;;;1.90;1.80;;;;;;;;;;5011813;28;20057;-80
2023/04/16 05:46:53;;;;;;;1.48;1.33;;;;;;;;;;5012766;28;20566;-79
2023/04/16 05:49:20;;;;;;;2.40;1.77;;;;;;;;;;4993849;28;20057;-80
2023/04/16 05:51:46;;;;;;;2.75;1.70;;;;;;;;;;5012257;28;20014;-79
2023/04/16 05:54:12;;;;;;;2.65;2.17;;;;;;;;;;4994311;28;20040;-79
2023/04/16 05:56:39;;;;;;;4.18;2.53;;;;;;;;;;4994350;28;20038;-80
2023/04/16 05:59:05;;;;;;;1.60;1.50;;;;;;;;;;5012498;28;20034;-79
2023/04/16 06:01:32;;;;;;;2.08;1.85;;;;;;;;;;5012462;28;20054;-80
2023/04/16 06:03:58;;;;;;;1.58;1.38;;;;;;;;;;5012744;28;20057;-80
2023/04/16 06:06:26;;;;;;;3.08;2.47;;;;;;;;;;4995853;28;20038;-80
2023/04/16 06:08:52;;;;;;;2.00;1.90;;;;;;;;;;5012385;28;20018;-80
2023/04/16 06:11:18;;;;;;;4.53;1.83;;;;;;;;;;5013334;28;20053;-80
2023/04/16 06:13:44;;;;;;;2.97;1.77;;;;;;;;;;5012893;28;20038;-81
2023/04/16 06:16:10;;;;;;;1.50;1.23;;;;;;;;;;5013005;28;20106;-80
2023/04/16 06:18:36;;;;;;;4.20;1.80;;;;;;;;;;5013674;28;20052;-80
2023/04/16 06:21:03;;;;;;;2.00;1.80;;;;;;;;;;5014016;28;20509;-80
2023/04/16 06:23:29;;;;;;;3.63;1.75;;;;;;;;;;4995063;28;20030;-80
2023/04/16 06:25:55;;;;;;;2.33;1.80;;;;;;;;;;5013175;28;20541;-80
2023/04/16 06:28:21;;;;;;;3.25;2.38;;;;;;;;;;5017665;28;20026;-80
2023/04/16 06:30:47;;;;;;;3.90;2.40;;;;;;;;;;5015882;28;20022;-80
2023/04/16 06:33:13;;;;;;;3.75;2.05;;;;;;;;;;5016413;28;20068;-80
2023/04/16 06:35:39;;;;;;;2.50;2.30;;;;;;;;;;5016557;28;20026;-80
2023/04/16 06:38:05;;;;;;;2.83;2.20;;;;;;;;;;4998728;28;20048;-81
2023/04/16 06:40:31;;;;;;;3.85;3.00;;;;;;;;;;5003669;28;20321;-80
2023/04/16 06:42:57;;;;;;;4.38;3.55;;;;;;;;;;5005449;28;20025;-81
2023/04/16 06:45:23;;;;;;;4.88;2.35;;;;;;;;;;5006529;28;20030;-80
2023/04/16 06:47:51;;;;;;;2.83;2.03;;;;;;;;;;5001106;28;20029;-81
2023/04/16 06:50:17;;;;;;;2.60;2.00;;;;;;;;;;5017504;28;20076;-80
2023/04/16 06:52:43;;;;;;;2.00;1.75;;;;;;;;;;5023418;28;20026;-80
2023/04/16 06:55:09;;;;;;;3.13;1.90;;;;;;;;;;5009551;28;20105;-80
2023/04/16 06:57:35;;;;;;;2.67;2.22;;;;;;;;;;5007883;28;20029;-80
2023/04/16 07:00:02;;;;;;;2.05;1.70;;;;;;;;;;5008782;28;20105;-80
2023/04/16 07:02:28;;;;;;;3.03;2.17;;;;;;;;;;5008851;28;20038;-80
2023/04/16 07:04:54;;;;;;;3.78;2.03;;;;;;;;;;5007319;28;20038;-80
2023/04/16 07:07:20;;;;;;;2.72;2.30;;;;;;;;;;5006331;28;20034;-80
2023/04/16 07:09:46;;;;;;;2.67;1.83;;;;;;;;;;5021878;28;20182;-79
2023/04/16 07:12:12;;;;;;;3.45;2.53;;;;;;;;;;5001157;28;20418;-80
2023/04/16 07:14:38;;;;;;;3.10;1.98;;;;;;;;;;5021854;28;20021;-79
2023/04/16 07:17:04;;;;;;;2.30;2.10;;;;;;;;;;5021953;28;20064;-79
2023/04/16 07:19:31;;;;;;;2.13;1.90;;;;;;;;;;4999864;28;20402;-79
2023/04/16 07:21:58;;;;;;;1.90;1.70;;;;;;;;;;4999411;28;20125;-81
2023/04/16 07:24:24;;;;;;;2.10;1.90;;;;;;;;;;5016105;28;20056;-81
2023/04/16 07:26:50;;;;;;;2.38;2.17;;;;;;;;;;5021119;28;20085;-81
2023/04/16 07:29:16;;;;;;;1.65;1.52;;;;;;;;;;5022000;28;20026;-81
2023/04/16 07:31:42;;;;;;;2.67;1.92;;;;;;;;;;5004265;28;20030;-81
2023/04/16 07:34:08;;;;;;;1.95;1.83;;;;;;;;;;5021806;28;20029;-80
2023/04/16 07:36:35;;;;;;;2.63;1.70;;;;;;;;;;5020010;28;20042;-81
2023/04/16 07:39:01;;;;;;;2.03;1.50;;;;;;;;;;5013845;28;20091;-82
2023/04/16 07:41:28;;;;;;;2.85;1.88;;;;;;;;;;4998478;28;20021;-80
2023/04/16 07:43:54;;;;;;;5.22;1.45;;;;;;;;;;4997553;28;20145;-78
2023/04/16 07:46:20;;;;;;;2.72;2.47;;;;;;;;;;5014426;28;20068;-80
2023/04/16 07:48:46;;;;;;;6.00;1.70;;;;;;;;;;4998128;28;20593;-81
2023/04/16 07:51:12;;;;;;;2.78;2.17;;;;;;;;;;4997026;28;20434;-80
2023/04/16 07:53:38;;;;;;;2.05;1.73;;;;;;;;;;4998611;28;20021;-81
2023/04/16 07:56:04;;;;;;;1.90;1.80;;;;;;;;;;5016706;28;20022;-80
2023/04/16 07:58:30;;;;;;;3.78;1.75;;;;;;;;;;4998121;28;20084;-80
2023/04/16 08:00:57;;;;;;;2.92;1.73;;;;;;;;;;4998234;28;20045;-80
2023/04/16 08:03:23;;;;;;;1.98;1.83;;;;;;;;;;4999134;28;20024;-80
2023/04/16 08:05:49;;;;;;;4.63;1.92;;;;;;;;;;5014780;28;20022;-80
2023/04/16 08:08:15;;;;;;;2.33;1.92;;;;;;;;;;4995506;28;20028;-80
2023/04/16 08:10:41;;;;;;;2.90;2.35;;;;;;;;;;4996105;28;20060;-79
2023/04/16 08:13:08;;;;;;;2.63;2.05;;;;;;;;;;4995671;28;20017;-79
2023/04/16 08:15:34;;;;;;;3.50;1.73;;;;;;;;;;5014118;28;20096;-79
2023/04/16 08:18:00;;;;;;;2.55;2.13;;;;;;;;;;4996634;28;20026;-79
2023/04/16 08:20:26;;;;;;;2.67;2.08;;;;;;;;;;4995973;28;20033;-79
2023/04/16 08:22:53;;;;;;;1.60;1.50;;;;;;;;;;5016098;28;20581;-81
2023/04/16 08:25:22;;;;;;;2.38;2.17;;;;;;;;;;5017925;28;20026;-80
2023/04/16 08:27:48;;;;;;;2.55;2.00;;;;;;;;;;5002478;28;20046;-81
2023/04/16 08:30:15;;;;;;;2.13;1.92;;;;;;;;;;5001339;28;20545;-81
2023/04/16 08:32:42;;;;;;;5.72;2.58;;;;;;;;;;5000843;28;20041;-82
2023/04/16 08:35:10;;;;;;;3.72;2.10;;;;;;;;;;5018950;28;20033;-80
2023/04/16 08:37:37;;;;;;;2.27;2.07;;;;;;;;;;5001990;28;20096;-81
2023/04/16 08:40:03;;;;;;;2.17;1.98;;;;;;;;;;5003957;28;20319;-82
2023/04/16 08:42:35;;;;;;;2.38;2.17;;;;;;;;;;5023124;28;20053;-81
2023/04/16 08:45:11;;;;;;;1.85;1.75;;;;;;;;;;5007190;28;20026;-81
2023/04/16 08:47:38;;;;;;;4.32;2.63;;;;;;;;;;5006997;28;20030;-81
2023/04/16 08:50:04;;;;;;;3.42;2.38;;;;;;;;;;5025984;28;20037;-81
2023/04/16 08:52:31;;;;;;;5.53;2.50;;;;;;;;;;5019135;28;20030;-80
2023/04/16 08:54:57;;;;;;;3.45;2.08;;;;;;;;;;5009867;28;20025;-79
2023/04/16 08:57:23;;;;;;;3.20;2.15;;;;;;;;;;5017979;28;20034;-79
2023/04/16 08:59:49;;;;;;;4.20;2.53;;;;;;;;;;5033231;28;20029;-79
2023/04/16 09:02:15;;;;;;;5.10;2.33;;;;;;;;;;5033056;28;20041;-80
2023/04/16 09:04:42;;;;;;;3.55;2.35;;;;;;;;;;5013307;28;20024;-80
2023/04/16 09:07:08;;;;;;;2.78;2.42;;;;;;;;;;5031955;28;20033;-81
2023/04/16 09:09:34;;;;;;;3.75;2.67;;;;;;;;;;5016400;28;20029;-81
2023/04/16 09:12:00;;;;;;;2.55;2.30;;;;;;;;;;5014995;28;20213;-79
2023/04/16 09:14:26;;;;;;;3.15;2.33;;;;;;;;;;5018167;28;20595;-80
2023/04/16 09:16:54;;;;;;;3.28;2.47;;;;;;;;;;5000148;28;20061;-80
2023/04/16 09:19:20;;;;;;;2.38;2.17;;;;;;;;;;5017280;28;20305;-79
2023/04/16 09:21:47;;;;;;;2.97;2.55;;;;;;;;;;5025147;28;20041;-81
2023/04/16 09:24:13;;;;;;;3.08;2.53;;;;;;;;;;5018172;28;20014;-79
2023/04/16 09:26:42;;;;;;;3.22;2.50;;;;;;;;;;5019437;28;20202;-80
2023/04/16 09:29:08;;;;;;;3.58;3.05;;;;;;;;;;5018861;28;20018;-81
2023/04/16 09:31:34;;;;;;;3.30;2.90;;;;;;;;;;5022639;28;20025;-77
2023/04/16 09:34:05;;;;;;;3.20;2.63;;;;;;;;;;5017929;28;20034;-80
2023/04/16 09:36:31;;;;;;;6.10;4.68;;;;;;;;;;5019502;28;20132;-79
2023/04/16 09:38:58;;;;;;;11.13;4.07;;;;;;;;;;5026216;28;20069;-78
2023/04/16 09:41:28;;;;;;;7.60;3.30;;;;;;;;;;5027312;28;20029;-77
2023/04/16 09:43:55;;;;;;;5.10;2.83;;;;;;;;;;5023325;28;20048;-78
2023/04/16 09:46:21;;;;;;;3.80;3.13;;;;;;;;;;5021670;28;20097;-78
2023/04/16 09:48:47;;;;;;;13.07;3.88;;;;;;;;;;5026129;28;20072;-79
2023/04/16 09:51:13;;;;;;;5.25;2.88;;;;;;;;;;5023827;28;20022;-79
2023/04/16 09:53:39;;;;;;;5.53;3.65;;;;;;;;;;5024350;28;20033;-79
2023/04/16 09:56:25;;;;;;;5.00;3.70;;;;;;;;;;5025980;28;20094;-79
2023/04/16 09:58:51;;;;;;;5.00;2.55;;;;;;;;;;5022902;28;20069;-79
2023/04/16 10:01:22;;;;;;;3.58;3.20;;;;;;;;;;5004150;28;20136;-78
2023/04/16 10:03:50;;;;;;;4.35;3.55;;;;;;;;;;5000317;28;20513;-82
2023/04/16 10:06:20;;;;;;;5.43;4.05;;;;;;;;;;5001252;28;20030;-82
2023/04/16 10:08:47;;;;;;;4.88;3.58;;;;;;;;;;5018374;28;20026;-78
2023/04/16 10:11:13;;;;;;;7.32;3.83;;;;;;;;;;5012185;28;20041;-78
2023/04/16 10:13:39;;;;;;;5.45;3.15;;;;;;;;;;5010637;28;20029;-81
2023/04/16 10:16:06;;;;;;;4.75;3.40;;;;;;;;;;5012198;28;20017;-79
2023/04/16 10:18:33;;;;;;;4.38;3.58;;;;;;;;;;5009847;28;20030;-80
2023/04/16 10:20:59;;;;;;;5.32;3.45;;;;;;;;;;5012436;28;20030;-81
2023/04/16 10:23:26;;;;;;;6.95;4.25;;;;;;;;;;5015739;28;20085;-80
2023/04/16 10:25:54;;;;;;;6.50;3.28;;;;;;;;;;5009876;28;20045;-81
2023/04/16 10:28:20;;;;;;;6.53;3.72;;;;;;;;;;5010192;28;20050;-80
2023/04/16 10:30:51;;;;;;;5.15;3.67;;;;;;;;;;5008426;28;20034;-79
2023/04/16 10:33:19;;;;;;;3.83;3.08;;;;;;;;;;5010050;28;20462;-79
2023/04/16 10:35:45;;;;;;;4.03;3.22;;;;;;;;;;5010349;28;20490;-79
2023/04/16 10:38:24;;;;;;;5.43;3.65;;;;;;;;;;5013564;28;20033;-79
2023/04/16 10:40:50;;;;;;;5.95;3.40;;;;;;;;;;5014344;28;20383;-78
2023/04/16 10:43:18;;;;;;;3.38;2.88;;;;;;;;;;5016073;28;20044;-79
2023/04/16 10:45:44;;;;;;;5.25;3.10;;;;;;;;;;5015132;28;20010;-79
2023/04/16 10:48:13;;;;;;;5.65;3.97;;;;;;;;;;5013748;28;20569;-78
2023/04/16 10:50:40;;;;;;;5.53;3.67;;;;;;;;;;5014796;28;20109;-81
2023/04/16 10:53:19;;;;;;;4.47;2.88;;;;;;;;;;5011296;28;20030;-81
2023/04/16 10:55:58;;;;;;;5.38;3.28;;;;;;;;;;5009442;28;20211;-79
2023/04/16 10:58:27;;;;;;;5.35;3.50;;;;;;;;;;5013496;28;20034;-78
2023/04/16 11:00:53;;;;;;;3.67;3.28;;;;;;;;;;5011430;28;20058;-79
2023/04/16 11:03:19;;;;;;;4.15;3.05;;;;;;;;;;5011607;28;20028;-78
2023/04/16 11:05:46;;;;;;;3.88;3.10;;;;;;;;;;5009822;28;20028;-79
2023/04/16 11:08:15;;;;;;;6.25;3.80;;;;;;;;;;5011364;28;20048;-79
2023/04/16 11:10:41;;;;;;;5.78;2.90;;;;;;;;;;4994240;28;20112;-78
2023/04/16 11:13:08;;;;;;;3.38;3.05;;;;;;;;;;5018976;28;20026;-78
2023/04/16 11:15:34;;;;;;;3.35;2.72;;;;;;;;;;5000990;28;20491;-78
2023/04/16 11:18:02;;;;;;;3.72;3.33;;;;;;;;;;5004676;28;20242;-76
2023/04/16 11:20:29;;;;;;;2.92;2.63;;;;;;;;;;5018549;28;20028;-79
2023/04/16 11:22:55;;;;;;;9.18;3.95;;;;;;;;;;4994539;28;20057;-81
2023/04/16 11:25:23;;;;;;;5.18;3.33;;;;;;;;;;4997478;28;20022;-79
2023/04/16 11:27:49;;;;;;;4.82;3.75;;;;;;;;;;4997650;28;20029;-79
2023/04/16 11:30:15;;;;;;;4.25;3.30;;;;;;;;;;4996217;28;20026;-79
2023/04/16 11:32:41;;;;;;;5.80;3.80;;;;;;;;;;4997242;28;20010;-77
2023/04/16 11:35:17;;;;;;;8.60;5.50;;;;;;;;;;5014473;28;20034;-78
2023/04/16 11:37:44;;;;;;;4.28;2.90;;;;;;;;;;5012083;28;20490;-78
2023/04/16 11:40:10;;;;;;;5.05;3.67;;;;;;;;;;4998810;28;20533;-78
2023/04/16 11:42:39;;;;;;;4.65;3.15;;;;;;;;;;5013077;28;20278;-78
2023/04/16 11:45:06;;;;;;;8.95;3.95;;;;;;;;;;5011007;28;20051;-77
2023/04/16 11:47:32;;;;;;;7.53;5.22;;;;;;;;;;4993643;28;20021;-78
2023/04/16 11:50:14;;;;;;;6.85;5.03;;;;;;;;;;4993662;28;20429;-78
2023/04/16 11:52:40;;;;;;;14.30;10.70;;;;;;;;;;5011548;28;20018;-78
2023/04/16 11:55:06;;;;;;;10.20;7.55;;;;;;;;;;5010739;28;20355;-76
2023/04/16 11:57:32;;;;;;;8.80;4.95;;;;;;;;;;5010699;28;20030;-77
2023/04/16 11:59:59;;;;;;;6.20;4.93;;;;;;;;;;5011154;28;20322;-77
2023/04/16 12:02:54;;;;;;;6.40;3.90;;;;;;;;;;5010724;28;20033;-76
2023/04/16 12:05:30;;;;;;;4.05;3.03;;;;;;;;;;4976489;28;20057;-76
2023/04/16 12:07:58;;;;;;;5.95;3.70;;;;;;;;;;5010425;28;20122;-77
2023/04/16 12:10:24;;;;;;;3.60;3.17;;;;;;;;;;5011721;28;20060;-77
2023/04/16 12:12:50;;;;;;;4.47;3.00;;;;;;;;;;5012279;28;20026;-78
2023/04/16 12:15:16;;;;;;;5.93;4.35;;;;;;;;;;5012486;28;20046;-77
2023/04/16 12:17:42;;;;;;;4.53;3.05;;;;;;;;;;5011288;28;20297;-78
2023/04/16 12:20:09;;;;;;;5.68;3.83;;;;;;;;;;5012550;28;20026;-78
2023/04/16 12:22:37;;;;;;;6.45;3.67;;;;;;;;;;5011826;28;20037;-78
2023/04/16 12:25:04;;;;;;;3.80;3.42;;;;;;;;;;5011266;28;20057;-78
2023/04/16 12:27:50;;;;;;;4.10;3.08;;;;;;;;;;5013057;28;20065;-77
2023/04/16 12:30:16;;;;;;;4.95;3.78;;;;;;;;;;5012477;28;20033;-78
2023/04/16 12:32:43;;;;;;;5.15;4.32;;;;;;;;;;5012417;28;20029;-78
2023/04/16 12:35:10;;;;;;;4.47;3.45;;;;;;;;;;5012274;28;20084;-78
2023/04/16 12:37:36;;;;;;;7.30;3.80;;;;;;;;;;4995600;28;20086;-77
2023/04/16 12:40:03;;;;;;;7.30;3.30;;;;;;;;;;5013198;28;20097;-77
2023/04/16 12:42:34;;;;;;;4.90;3.33;;;;;;;;;;5011943;28;20069;-76
2023/04/16 12:45:04;;;;;;;5.22;3.97;;;;;;;;;;5012149;28;20190;-77
2023/04/16 12:47:30;;;;;;;7.25;3.65;;;;;;;;;;5012065;28;20533;-76
2023/04/16 12:49:56;;;;;;;3.78;3.30;;;;;;;;;;5012541;28;20605;-76
2023/04/16 12:52:23;;;;;;;6.25;3.53;;;;;;;;;;5011447;28;20152;-78
2023/04/16 12:54:50;;;;;;;5.65;2.90;;;;;;;;;;5012277;28;20022;-76
2023/04/16 12:57:16;;;;;;;2.92;2.58;;;;;;;;;;5011561;28;20495;-76
2023/04/16 12:59:42;;;;;;;3.60;2.40;;;;;;;;;;5012032;28;20403;-76
2023/04/16 13:02:08;;;;;;;3.17;1.95;;;;;;;;;;5011498;28;20123;-76
2023/04/16 13:04:34;;;;;;;2.70;2.50;;;;;;;;;;5011547;28;20053;-76
2023/04/16 13:07:00;;;;;;;5.15;3.13;;;;;;;;;;5012239;28;20025;-77
2023/04/16 13:09:27;;;;;;;2.67;2.10;;;;;;;;;;5011867;28;20029;-76
2023/04/16 13:11:54;;;;;;;2.75;2.55;;;;;;;;;;5011086;28;20046;-76
2023/04/16 13:14:29;;;;;;;3.50;2.72;;;;;;;;;;5011586;28;20030;-77
2023/04/16 13:16:55;;;;;;;3.13;2.70;;;;;;;;;;5011430;28;20482;-76
2023/04/16 13:19:23;;;;;;;2.67;2.45;;;;;;;;;;5011533;28;20614;-76
2023/04/16 13:21:49;;;;;;;5.35;2.55;;;;;;;;;;5011577;28;20105;-76
2023/04/16 13:24:15;;;;;;;3.78;2.58;;;;;;;;;;5010965;28;20117;-76
2023/04/16 13:26:42;;;;;;;6.57;4.00;;;;;;;;;;5011375;28;20486;-76
2023/04/16 13:29:09;;;;;;;3.28;2.78;;;;;;;;;;5011131;28;20026;-76
2023/04/16 13:31:35;;;;;;;4.28;2.70;;;;;;;;;;5011880;28;20021;-76
2023/04/16 13:34:02;;;;;;;6.15;2.65;;;;;;;;;;5013229;28;20088;-78
2023/04/16 13:36:29;;;;;;;4.22;3.80;;;;;;;;;;5011867;28;20065;-78
2023/04/16 13:38:55;;;;;;;5.63;3.65;;;;;;;;;;5014550;28;20045;-78
2023/04/16 13:41:22;;;;;;;8.25;5.15;;;;;;;;;;5015891;28;20375;-78
2023/04/16 13:43:48;;;;;;;6.47;4.50;;;;;;;;;;5014993;28;20026;-78
2023/04/16 13:46:14;;;;;;;7.35;4.10;;;;;;;;;;5014751;28;20028;-78
2023/04/16 13:48:40;;;;;;;12.82;7.80;;;;;;;;;;5014434;28;20054;-77
2023/04/16 13:51:07;;;;;;;10.30;5.00;;;;;;;;;;5013312;28;20065;-79
2023/04/16 13:53:33;;;;;;;12.68;5.60;;;;;;;;;;4994929;28;20026;-78
2023/04/16 13:55:59;;;;;;;12.20;5.75;;;;;;;;;;5013513;28;20073;-77
2023/04/16 13:58:25;;;;;;;10.52;5.50;;;;;;;;;;5012666;28;20034;-78
2023/04/16 14:00:51;;;;;;;9.07;5.20;;;;;;;;;;5012653;28;20469;-77
2023/04/16 14:03:17;;;;;;;9.05;5.20;;;;;;;;;;5012005;28;20463;-79
2023/04/16 14:05:43;;;;;;;8.52;4.63;;;;;;;;;;5012221;28;20044;-78
2023/04/16 14:08:09;;;;;;;9.13;5.55;;;;;;;;;;5011099;28;20032;-78
2023/04/16 14:10:35;;;;;;;10.77;4.90;;;;;;;;;;5012141;28;20018;-78
2023/04/16 14:13:01;;;;;;;9.57;5.35;;;;;;;;;;4996289;28;20494;-79
2023/04/16 14:15:28;;;;;;;7.38;5.80;;;;;;;;;;4996562;28;20506;-78
2023/04/16 14:17:54;;;;;;;7.80;4.93;;;;;;;;;;4993625;28;20041;-79
2023/04/16 14:20:20;;;;;;;7.63;4.88;;;;;;;;;;5012015;28;20075;-76
2023/04/16 14:22:50;;;;;;;6.95;4.72;;;;;;;;;;4995475;28;20421;-76
2023/04/16 14:25:16;;;;;;;13.52;6.15;;;;;;;;;;4995085;28;20474;-79
2023/04/16 14:27:42;;;;;;;9.75;5.18;;;;;;;;;;5012239;28;20049;-79
2023/04/16 14:30:08;;;;;;;7.75;4.57;;;;;;;;;;4994353;28;20053;-79
2023/04/16 14:32:35;;;;;;;7.43;3.95;;;;;;;;;;5012006;28;20122;-79
2023/04/16 14:35:01;;;;;;;7.70;4.43;;;;;;;;;;4996038;28;20052;-78
2023/04/16 14:37:27;;;;;;;8.30;4.50;;;;;;;;;;5013670;28;20101;-78
2023/04/16 14:39:53;;;;;;;6.45;3.97;;;;;;;;;;5009976;28;20072;-78
2023/04/16 14:42:19;;;;;;;6.40;5.07;;;;;;;;;;5002406;28;20025;-80
2023/04/16 14:44:45;;;;;;;8.43;3.53;;;;;;;;;;5015026;28;20083;-82
2023/04/16 14:47:11;;;;;;;7.47;3.88;;;;;;;;;;5019321;28;20439;-80
2023/04/16 14:49:37;;;;;;;5.97;3.80;;;;;;;;;;5001107;28;20030;-78
2023/04/16 14:52:04;;;;;;;5.03;4.15;;;;;;;;;;5002619;28;20446;-81
2023/04/16 14:54:32;;;;;;;5.18;3.78;;;;;;;;;;5002001;28;20441;-80
2023/04/16 14:56:58;;;;;;;9.57;3.92;;;;;;;;;;5026063;28;20050;-79
2023/04/16 14:59:24;;;;;;;8.48;3.72;;;;;;;;;;5026049;28;20028;-81
2023/04/16 15:01:50;;;;;;;4.07;3.60;;;;;;;;;;5030505;28;20105;-78